sensor_id;sensor_type;location;lat;lon;timestamp;temperature;humidity
42099;DHT22;27758;55.900;8.516;2022-08-01T00:00:36;16.70;99.90
42099;DHT22;27758;55.900;8.516;2022-08-01T00:03:02;16.70;99.90
42099;DHT22;27758;55.900;8.516;2022-08-01T00:05:28;16.60;99.90
42099;DHT22;27758;55.900;8.516;2022-08-01T00:07:54;16.60;99.90
42099;DHT22;27758;55.900;8.516;2022-08-01T00:10:20;16.60;99.90
42099;DHT22;27758;55.900;8.516;2022-08-01T00:12:46;16.60;99.90
42099;DHT22;27758;55.900;8.516;2022-08-01T00:15:14;16.50;99.90
42099;DHT22;27758;55.900;8.516;2022-08-01T00:17:40;16.50;99.90
42099;DHT22;27758;55.900;8.516;2022-08-01T00:20:09;16.50;99.90
42099;DHT22;27758;55.900;8.516;2022-08-01T00:22:35;16.40;99.90
42099;DHT22;27758;55.900;8.516;2022-08-01T00:25:03;16.40;99.90
42099;DHT22;27758;55.900;8.516;2022-08-01T00:27:29;16.30;99.90
42099;DHT22;27758;55.900;8.516;2022-08-01T00:29:58;16.20;99.90
42099;DHT22;27758;55.900;8.516;2022-08-01T00:32:24;16.20;99.90
42099;DHT22;27758;55.900;8.516;2022-08-01T00:34:50;16.10;99.90
42099;DHT22;27758;55.900;8.516;2022-08-01T00:37:16;16.10;99.90
42099;DHT22;27758;55.900;8.516;2022-08-01T00:39:42;16.10;99.90
42099;DHT22;27758;55.900;8.516;2022-08-01T00:42:10;16.00;99.90
42099;DHT22;27758;55.900;8.516;2022-08-01T00:44:36;16.00;99.90
42099;DHT22;27758;55.900;8.516;2022-08-01T00:47:03;16.00;99.90
42099;DHT22;27758;55.900;8.516;2022-08-01T00:49:29;15.90;99.90
42099;DHT22;27758;55.900;8.516;2022-08-01T00:51:56;16.00;99.90
42099;DHT22;27758;55.900;8.516;2022-08-01T00:54:24;15.90;99.90
42099;DHT22;27758;55.900;8.516;2022-08-01T00:56:50;15.90;99.90
42099;DHT22;27758;55.900;8.516;2022-08-01T00:59:17;15.80;99.90
42099;DHT22;27758;55.900;8.516;2022-08-01T01:01:44;15.80;99.90
42099;DHT22;27758;55.900;8.516;2022-08-01T01:04:10;15.70;99.90
42099;DHT22;27758;55.900;8.516;2022-08-01T01:07:34;15.70;99.90
42099;DHT22;27758;55.900;8.516;2022-08-01T01:09:39;15.70;99.90
42099;DHT22;27758;55.900;8.516;2022-08-01T01:15:04;15.50;99.90
42099;DHT22;27758;55.900;8.516;2022-08-01T01:17:39;15.50;99.90
42099;DHT22;27758;55.900;8.516;2022-08-01T01:20:08;15.50;99.90
42099;DHT22;27758;55.900;8.516;2022-08-01T01:30:28;15.30;99.90
42099;DHT22;27758;55.900;8.516;2022-08-01T01:32:58;15.30;99.90
42099;DHT22;27758;55.900;8.516;2022-08-01T01:35:27;15.20;99.90
42099;DHT22;27758;55.900;8.516;2022-08-01T01:38:01;15.10;99.90
42099;DHT22;27758;55.900;8.516;2022-08-01T01:40:30;15.00;99.90
42099;DHT22;27758;55.900;8.516;2022-08-01T01:42:56;15.00;99.90
42099;DHT22;27758;55.900;8.516;2022-08-01T01:45:24;14.90;99.90
42099;DHT22;27758;55.900;8.516;2022-08-01T01:47:51;14.90;99.90
42099;DHT22;27758;55.900;8.516;2022-08-01T01:50:20;14.90;99.90
42099;DHT22;27758;55.900;8.516;2022-08-01T01:52:48;14.90;99.90
42099;DHT22;27758;55.900;8.516;2022-08-01T01:55:15;14.80;99.90
42099;DHT22;27758;55.900;8.516;2022-08-01T01:57:43;14.70;99.90
42099;DHT22;27758;55.900;8.516;2022-08-01T02:00:12;14.60;99.90
42099;DHT22;27758;55.900;8.516;2022-08-01T02:02:39;14.60;99.90
42099;DHT22;27758;55.900;8.516;2022-08-01T02:05:07;14.60;99.90
42099;DHT22;27758;55.900;8.516;2022-08-01T02:07:34;14.60;99.90
42099;DHT22;27758;55.900;8.516;2022-08-01T02:10:03;14.60;99.90
42099;DHT22;27758;55.900;8.516;2022-08-01T02:12:34;14.50;99.90
42099;DHT22;27758;55.900;8.516;2022-08-01T02:15:02;14.50;99.90
42099;DHT22;27758;55.900;8.516;2022-08-01T02:17:29;14.40;99.90
42099;DHT22;27758;55.900;8.516;2022-08-01T02:19:56;14.40;99.90
42099;DHT22;27758;55.900;8.516;2022-08-01T02:22:36;14.40;99.90
42099;DHT22;27758;55.900;8.516;2022-08-01T02:25:09;14.40;99.90
42099;DHT22;27758;55.900;8.516;2022-08-01T02:27:44;14.40;99.90
42099;DHT22;27758;55.900;8.516;2022-08-01T02:30:13;14.40;99.90
42099;DHT22;27758;55.900;8.516;2022-08-01T02:32:57;14.30;99.90
42099;DHT22;27758;55.900;8.516;2022-08-01T02:35:31;14.30;99.90
42099;DHT22;27758;55.900;8.516;2022-08-01T02:37:58;14.20;99.90
42099;DHT22;27758;55.900;8.516;2022-08-01T02:40:31;14.20;99.90
42099;DHT22;27758;55.900;8.516;2022-08-01T02:42:59;14.20;99.90
42099;DHT22;27758;55.900;8.516;2022-08-01T02:45:26;14.20;99.90
42099;DHT22;27758;55.900;8.516;2022-08-01T02:47:57;14.20;99.90
42099;DHT22;27758;55.900;8.516;2022-08-01T02:50:25;14.10;99.90
42099;DHT22;27758;55.900;8.516;2022-08-01T02:52:53;14.10;99.90
42099;DHT22;27758;55.900;8.516;2022-08-01T02:55:20;14.00;99.90
42099;DHT22;27758;55.900;8.516;2022-08-01T02:57:50;14.00;99.90
42099;DHT22;27758;55.900;8.516;2022-08-01T03:00:17;14.00;99.90
42099;DHT22;27758;55.900;8.516;2022-08-01T03:02:44;13.90;99.90
42099;DHT22;27758;55.900;8.516;2022-08-01T03:05:14;13.90;99.90
42099;DHT22;27758;55.900;8.516;2022-08-01T03:07:42;13.90;99.90
42099;DHT22;27758;55.900;8.516;2022-08-01T03:10:10;13.90;99.90
42099;DHT22;27758;55.900;8.516;2022-08-01T03:12:37;13.90;99.90
42099;DHT22;27758;55.900;8.516;2022-08-01T03:15:05;13.80;99.90
42099;DHT22;27758;55.900;8.516;2022-08-01T03:17:32;13.80;99.90
42099;DHT22;27758;55.900;8.516;2022-08-01T03:20:02;13.80;99.90
42099;DHT22;27758;55.900;8.516;2022-08-01T03:22:29;13.70;99.90
42099;DHT22;27758;55.900;8.516;2022-08-01T03:24:57;13.70;99.90
42099;DHT22;27758;55.900;8.516;2022-08-01T03:27:25;13.70;99.90
42099;DHT22;27758;55.900;8.516;2022-08-01T03:29:52;13.70;99.90
42099;DHT22;27758;55.900;8.516;2022-08-01T03:32:21;13.70;99.90
42099;DHT22;27758;55.900;8.516;2022-08-01T03:34:47;13.60;99.90
42099;DHT22;27758;55.900;8.516;2022-08-01T03:39:49;13.50;99.90
42099;DHT22;27758;55.900;8.516;2022-08-01T03:42:22;13.50;99.90
42099;DHT22;27758;55.900;8.516;2022-08-01T03:44:58;13.50;99.90
42099;DHT22;27758;55.900;8.516;2022-08-01T03:47:30;13.60;99.90
42099;DHT22;27758;55.900;8.516;2022-08-01T03:49:57;13.50;99.90
42099;DHT22;27758;55.900;8.516;2022-08-01T03:52:25;13.50;99.90
42099;DHT22;27758;55.900;8.516;2022-08-01T03:54:55;13.50;99.90
42099;DHT22;27758;55.900;8.516;2022-08-01T03:57:23;13.50;99.90
42099;DHT22;27758;55.900;8.516;2022-08-01T03:59:49;13.50;99.90
42099;DHT22;27758;55.900;8.516;2022-08-01T04:02:16;13.50;99.90
42099;DHT22;27758;55.900;8.516;2022-08-01T04:04:42;13.40;99.90
42099;DHT22;27758;55.900;8.516;2022-08-01T04:07:29;13.40;99.90
42099;DHT22;27758;55.900;8.516;2022-08-01T04:09:55;13.40;99.90
42099;DHT22;27758;55.900;8.516;2022-08-01T04:12:22;13.30;99.90
42099;DHT22;27758;55.900;8.516;2022-08-01T04:14:48;13.30;99.90
42099;DHT22;27758;55.900;8.516;2022-08-01T04:17:17;13.30;99.90
42099;DHT22;27758;55.900;8.516;2022-08-01T04:19:44;13.30;99.90
42099;DHT22;27758;55.900;8.516;2022-08-01T04:22:11;13.30;99.90
42099;DHT22;27758;55.900;8.516;2022-08-01T04:24:39;13.40;99.90
42099;DHT22;27758;55.900;8.516;2022-08-01T04:27:13;13.40;99.90
42099;DHT22;27758;55.900;8.516;2022-08-01T04:29:40;13.50;99.90
42099;DHT22;27758;55.900;8.516;2022-08-01T04:32:11;13.50;99.90
42099;DHT22;27758;55.900;8.516;2022-08-01T04:34:39;13.50;99.90
42099;DHT22;27758;55.900;8.516;2022-08-01T04:37:09;13.60;99.90
42099;DHT22;27758;55.900;8.516;2022-08-01T04:39:37;13.70;99.90
42099;DHT22;27758;55.900;8.516;2022-08-01T04:42:04;13.70;99.90
42099;DHT22;27758;55.900;8.516;2022-08-01T04:44:31;13.80;99.90
42099;DHT22;27758;55.900;8.516;2022-08-01T04:47:02;13.90;99.90
42099;DHT22;27758;55.900;8.516;2022-08-01T04:49:32;13.90;99.90
42099;DHT22;27758;55.900;8.516;2022-08-01T04:51:58;14.00;99.90
42099;DHT22;27758;55.900;8.516;2022-08-01T04:54:30;14.10;99.90
42099;DHT22;27758;55.900;8.516;2022-08-01T04:56:59;14.10;99.90
42099;DHT22;27758;55.900;8.516;2022-08-01T04:59:28;14.20;99.90
42099;DHT22;27758;55.900;8.516;2022-08-01T05:02:14;14.20;99.90
42099;DHT22;27758;55.900;8.516;2022-08-01T05:04:41;14.30;99.90
42099;DHT22;27758;55.900;8.516;2022-08-01T05:07:08;14.30;99.90
42099;DHT22;27758;55.900;8.516;2022-08-01T05:09:35;14.40;99.90
42099;DHT22;27758;55.900;8.516;2022-08-01T05:12:05;14.50;99.90
42099;DHT22;27758;55.900;8.516;2022-08-01T05:14:31;14.60;99.90
42099;DHT22;27758;55.900;8.516;2022-08-01T05:16:59;14.60;99.90
42099;DHT22;27758;55.900;8.516;2022-08-01T05:19:25;14.70;99.90
42099;DHT22;27758;55.900;8.516;2022-08-01T05:21:52;14.90;99.90
42099;DHT22;27758;55.900;8.516;2022-08-01T05:24:18;15.00;99.90
42099;DHT22;27758;55.900;8.516;2022-08-01T05:26:44;15.10;99.90
42099;DHT22;27758;55.900;8.516;2022-08-01T05:29:10;15.20;99.90
42099;DHT22;27758;55.900;8.516;2022-08-01T05:31:35;15.20;99.90
42099;DHT22;27758;55.900;8.516;2022-08-01T05:34:01;15.30;99.90
42099;DHT22;27758;55.900;8.516;2022-08-01T05:36:28;15.30;99.90
42099;DHT22;27758;55.900;8.516;2022-08-01T05:38:53;15.40;99.90
42099;DHT22;27758;55.900;8.516;2022-08-01T05:41:19;15.60;99.90
42099;DHT22;27758;55.900;8.516;2022-08-01T05:43:45;15.70;99.90
42099;DHT22;27758;55.900;8.516;2022-08-01T05:46:11;15.80;99.90
42099;DHT22;27758;55.900;8.516;2022-08-01T05:48:37;16.00;99.90
42099;DHT22;27758;55.900;8.516;2022-08-01T05:51:04;16.10;99.90
42099;DHT22;27758;55.900;8.516;2022-08-01T05:53:30;16.10;99.90
42099;DHT22;27758;55.900;8.516;2022-08-01T05:55:56;16.20;99.90
42099;DHT22;27758;55.900;8.516;2022-08-01T05:58:22;16.20;99.90
42099;DHT22;27758;55.900;8.516;2022-08-01T06:00:48;16.40;99.90
42099;DHT22;27758;55.900;8.516;2022-08-01T06:03:14;16.60;99.90
42099;DHT22;27758;55.900;8.516;2022-08-01T06:05:40;16.70;99.90
42099;DHT22;27758;55.900;8.516;2022-08-01T06:08:06;16.70;99.90
42099;DHT22;27758;55.900;8.516;2022-08-01T06:10:32;16.90;99.90
42099;DHT22;27758;55.900;8.516;2022-08-01T06:12:58;17.00;99.90
42099;DHT22;27758;55.900;8.516;2022-08-01T06:15:25;16.90;99.90
42099;DHT22;27758;55.900;8.516;2022-08-01T06:17:51;16.90;99.90
42099;DHT22;27758;55.900;8.516;2022-08-01T06:20:16;16.90;99.90
42099;DHT22;27758;55.900;8.516;2022-08-01T06:22:42;16.90;99.90
42099;DHT22;27758;55.900;8.516;2022-08-01T06:25:08;17.20;99.90
42099;DHT22;27758;55.900;8.516;2022-08-01T06:27:35;17.30;99.90
42099;DHT22;27758;55.900;8.516;2022-08-01T06:30:02;17.40;99.90
42099;DHT22;27758;55.900;8.516;2022-08-01T06:32:28;17.40;99.90
42099;DHT22;27758;55.900;8.516;2022-08-01T06:34:55;17.50;99.90
42099;DHT22;27758;55.900;8.516;2022-08-01T06:37:21;17.70;99.90
42099;DHT22;27758;55.900;8.516;2022-08-01T06:39:47;17.80;99.90
42099;DHT22;27758;55.900;8.516;2022-08-01T06:42:13;18.00;99.90
42099;DHT22;27758;55.900;8.516;2022-08-01T06:44:40;18.10;99.90
42099;DHT22;27758;55.900;8.516;2022-08-01T06:47:06;18.20;99.90
42099;DHT22;27758;55.900;8.516;2022-08-01T06:49:32;18.40;99.90
42099;DHT22;27758;55.900;8.516;2022-08-01T06:51:58;18.60;99.90
42099;DHT22;27758;55.900;8.516;2022-08-01T06:54:24;18.70;99.90
42099;DHT22;27758;55.900;8.516;2022-08-01T06:56:50;18.70;99.90
42099;DHT22;27758;55.900;8.516;2022-08-01T06:59:16;18.80;99.90
42099;DHT22;27758;55.900;8.516;2022-08-01T07:01:42;18.90;99.90
42099;DHT22;27758;55.900;8.516;2022-08-01T07:04:07;18.90;99.90
42099;DHT22;27758;55.900;8.516;2022-08-01T07:06:33;18.70;99.90
42099;DHT22;27758;55.900;8.516;2022-08-01T07:08:59;18.40;99.90
42099;DHT22;27758;55.900;8.516;2022-08-01T07:11:27;18.00;99.90
42099;DHT22;27758;55.900;8.516;2022-08-01T07:13:53;17.80;99.90
42099;DHT22;27758;55.900;8.516;2022-08-01T07:16:19;17.70;99.90
42099;DHT22;27758;55.900;8.516;2022-08-01T07:18:44;17.60;99.90
42099;DHT22;27758;55.900;8.516;2022-08-01T07:21:11;17.50;99.90
42099;DHT22;27758;55.900;8.516;2022-08-01T07:23:36;17.40;99.90
42099;DHT22;27758;55.900;8.516;2022-08-01T07:26:03;17.30;99.90
42099;DHT22;27758;55.900;8.516;2022-08-01T07:28:29;17.30;99.90
42099;DHT22;27758;55.900;8.516;2022-08-01T07:30:56;17.40;99.90
42099;DHT22;27758;55.900;8.516;2022-08-01T07:33:22;17.70;99.90
42099;DHT22;27758;55.900;8.516;2022-08-01T07:35:48;18.00;99.90
42099;DHT22;27758;55.900;8.516;2022-08-01T07:38:14;18.20;99.90
42099;DHT22;27758;55.900;8.516;2022-08-01T07:40:43;18.10;99.90
42099;DHT22;27758;55.900;8.516;2022-08-01T07:43:09;18.00;99.90
42099;DHT22;27758;55.900;8.516;2022-08-01T07:45:35;18.30;99.90
42099;DHT22;27758;55.900;8.516;2022-08-01T07:48:03;18.40;99.90
42099;DHT22;27758;55.900;8.516;2022-08-01T07:50:30;18.50;99.90
42099;DHT22;27758;55.900;8.516;2022-08-01T07:52:58;18.50;99.90
42099;DHT22;27758;55.900;8.516;2022-08-01T07:55:24;18.50;99.90
42099;DHT22;27758;55.900;8.516;2022-08-01T07:57:51;18.60;99.90
42099;DHT22;27758;55.900;8.516;2022-08-01T08:00:17;18.70;99.90
42099;DHT22;27758;55.900;8.516;2022-08-01T08:02:44;19.00;99.90
42099;DHT22;27758;55.900;8.516;2022-08-01T08:05:11;18.80;99.90
42099;DHT22;27758;55.900;8.516;2022-08-01T08:07:37;18.60;99.90
42099;DHT22;27758;55.900;8.516;2022-08-01T08:10:05;18.40;99.90
42099;DHT22;27758;55.900;8.516;2022-08-01T08:12:33;18.50;99.90
42099;DHT22;27758;55.900;8.516;2022-08-01T08:14:59;19.10;99.90
42099;DHT22;27758;55.900;8.516;2022-08-01T08:17:27;19.30;99.90
42099;DHT22;27758;55.900;8.516;2022-08-01T08:19:53;19.10;99.90
42099;DHT22;27758;55.900;8.516;2022-08-01T08:22:19;18.90;99.90
42099;DHT22;27758;55.900;8.516;2022-08-01T08:24:45;18.70;99.90
42099;DHT22;27758;55.900;8.516;2022-08-01T08:27:11;18.90;99.90
42099;DHT22;27758;55.900;8.516;2022-08-01T08:29:37;19.20;99.90
42099;DHT22;27758;55.900;8.516;2022-08-01T08:32:03;19.10;99.90
42099;DHT22;27758;55.900;8.516;2022-08-01T08:34:29;19.40;99.90
42099;DHT22;27758;55.900;8.516;2022-08-01T08:36:56;19.80;99.90
42099;DHT22;27758;55.900;8.516;2022-08-01T08:39:23;19.50;99.90
42099;DHT22;27758;55.900;8.516;2022-08-01T08:41:49;19.20;99.90
42099;DHT22;27758;55.900;8.516;2022-08-01T08:44:16;19.20;99.90
42099;DHT22;27758;55.900;8.516;2022-08-01T08:46:45;19.00;99.90
42099;DHT22;27758;55.900;8.516;2022-08-01T08:49:14;18.80;99.90
42099;DHT22;27758;55.900;8.516;2022-08-01T08:51:42;18.60;99.90
42099;DHT22;27758;55.900;8.516;2022-08-01T08:54:11;18.90;99.90
42099;DHT22;27758;55.900;8.516;2022-08-01T08:56:40;19.30;99.90
42099;DHT22;27758;55.900;8.516;2022-08-01T08:59:08;19.50;99.90
42099;DHT22;27758;55.900;8.516;2022-08-01T09:01:36;19.40;99.90
42099;DHT22;27758;55.900;8.516;2022-08-01T09:04:03;19.30;99.90
42099;DHT22;27758;55.900;8.516;2022-08-01T09:06:30;19.40;99.90
42099;DHT22;27758;55.900;8.516;2022-08-01T09:08:57;19.80;99.90
42099;DHT22;27758;55.900;8.516;2022-08-01T09:11:24;20.20;99.90
42099;DHT22;27758;55.900;8.516;2022-08-01T09:16:38;21.30;99.90
42099;DHT22;27758;55.900;8.516;2022-08-01T09:19:16;21.40;99.90
42099;DHT22;27758;55.900;8.516;2022-08-01T09:21:56;21.40;99.90
42099;DHT22;27758;55.900;8.516;2022-08-01T09:24:24;21.10;99.90
42099;DHT22;27758;55.900;8.516;2022-08-01T09:26:50;21.00;99.90
42099;DHT22;27758;55.900;8.516;2022-08-01T09:29:25;21.10;99.90
42099;DHT22;27758;55.900;8.516;2022-08-01T09:31:51;21.40;99.90
42099;DHT22;27758;55.900;8.516;2022-08-01T09:34:28;21.60;99.90
42099;DHT22;27758;55.900;8.516;2022-08-01T09:36:57;21.50;99.90
42099;DHT22;27758;55.900;8.516;2022-08-01T09:39:46;21.20;99.90
42099;DHT22;27758;55.900;8.516;2022-08-01T09:42:23;21.30;99.90
42099;DHT22;27758;55.900;8.516;2022-08-01T09:44:51;21.10;99.90
42099;DHT22;27758;55.900;8.516;2022-08-01T09:47:20;21.40;99.90
42099;DHT22;27758;55.900;8.516;2022-08-01T09:49:54;21.60;99.90
42099;DHT22;27758;55.900;8.516;2022-08-01T09:52:22;22.00;99.90
42099;DHT22;27758;55.900;8.516;2022-08-01T09:55:03;22.10;99.90
42099;DHT22;27758;55.900;8.516;2022-08-01T09:57:29;22.10;99.90
42099;DHT22;27758;55.900;8.516;2022-08-01T09:59:58;21.80;99.90
42099;DHT22;27758;55.900;8.516;2022-08-01T10:02:35;22.00;99.90
42099;DHT22;27758;55.900;8.516;2022-08-01T10:05:04;21.80;99.90
42099;DHT22;27758;55.900;8.516;2022-08-01T10:07:30;21.80;99.90
42099;DHT22;27758;55.900;8.516;2022-08-01T10:09:56;21.90;99.90
42099;DHT22;27758;55.900;8.516;2022-08-01T10:12:34;21.90;99.90
42099;DHT22;27758;55.900;8.516;2022-08-01T10:15:00;21.80;99.90
42099;DHT22;27758;55.900;8.516;2022-08-01T10:17:26;21.90;99.90
42099;DHT22;27758;55.900;8.516;2022-08-01T10:19:52;22.00;99.90
42099;DHT22;27758;55.900;8.516;2022-08-01T10:22:23;22.10;99.90
42099;DHT22;27758;55.900;8.516;2022-08-01T10:24:51;22.20;99.90
42099;DHT22;27758;55.900;8.516;2022-08-01T10:27:20;22.20;99.90
42099;DHT22;27758;55.900;8.516;2022-08-01T10:29:56;22.10;99.90
42099;DHT22;27758;55.900;8.516;2022-08-01T10:32:22;22.20;99.90
42099;DHT22;27758;55.900;8.516;2022-08-01T10:34:49;22.10;99.90
42099;DHT22;27758;55.900;8.516;2022-08-01T10:37:16;22.40;99.90
42099;DHT22;27758;55.900;8.516;2022-08-01T10:39:43;22.30;99.90
42099;DHT22;27758;55.900;8.516;2022-08-01T10:42:11;21.90;99.90
42099;DHT22;27758;55.900;8.516;2022-08-01T10:44:38;21.90;99.90
42099;DHT22;27758;55.900;8.516;2022-08-01T10:47:10;22.20;99.90
42099;DHT22;27758;55.900;8.516;2022-08-01T10:49:51;22.20;99.90
42099;DHT22;27758;55.900;8.516;2022-08-01T10:52:19;22.50;99.90
42099;DHT22;27758;55.900;8.516;2022-08-01T10:54:46;22.40;99.90
42099;DHT22;27758;55.900;8.516;2022-08-01T10:57:13;22.00;99.90
42099;DHT22;27758;55.900;8.516;2022-08-01T10:59:50;21.80;99.90
42099;DHT22;27758;55.900;8.516;2022-08-01T11:02:34;22.10;99.90
42099;DHT22;27758;55.900;8.516;2022-08-01T11:05:07;22.20;99.90
42099;DHT22;27758;55.900;8.516;2022-08-01T11:08:23;22.00;99.90
42099;DHT22;27758;55.900;8.516;2022-08-01T11:10:40;22.10;99.90
42099;DHT22;27758;55.900;8.516;2022-08-01T11:13:07;21.90;99.90
42099;DHT22;27758;55.900;8.516;2022-08-01T11:15:34;22.00;99.90
42099;DHT22;27758;55.900;8.516;2022-08-01T11:18:03;22.10;99.90
42099;DHT22;27758;55.900;8.516;2022-08-01T11:20:33;22.20;99.90
42099;DHT22;27758;55.900;8.516;2022-08-01T11:30:53;22.00;99.90
42099;DHT22;27758;55.900;8.516;2022-08-01T11:38:38;22.10;99.90
42099;DHT22;27758;55.900;8.516;2022-08-01T11:56:47;21.70;99.90
42099;DHT22;27758;55.900;8.516;2022-08-01T11:59:13;21.20;99.90
42099;DHT22;27758;55.900;8.516;2022-08-01T12:01:41;20.90;99.90
42099;DHT22;27758;55.900;8.516;2022-08-01T12:04:06;20.80;99.90
42099;DHT22;27758;55.900;8.516;2022-08-01T12:06:32;20.90;99.90
42099;DHT22;27758;55.900;8.516;2022-08-01T12:09:21;21.20;99.90
42099;DHT22;27758;55.900;8.516;2022-08-01T12:11:47;21.20;99.90
42099;DHT22;27758;55.900;8.516;2022-08-01T12:14:20;21.20;99.90
42099;DHT22;27758;55.900;8.516;2022-08-01T12:16:53;21.10;99.90
42099;DHT22;27758;55.900;8.516;2022-08-01T12:19:24;21.00;99.90
42099;DHT22;27758;55.900;8.516;2022-08-01T12:22:10;21.10;99.90
42099;DHT22;27758;55.900;8.516;2022-08-01T12:24:38;21.00;99.90
42099;DHT22;27758;55.900;8.516;2022-08-01T12:27:05;21.10;99.90
42099;DHT22;27758;55.900;8.516;2022-08-01T12:29:36;21.10;99.90
42099;DHT22;27758;55.900;8.516;2022-08-01T12:32:04;21.20;99.90
42099;DHT22;27758;55.900;8.516;2022-08-01T12:34:29;21.40;99.90
42099;DHT22;27758;55.900;8.516;2022-08-01T12:36:58;21.30;99.90
42099;DHT22;27758;55.900;8.516;2022-08-01T12:39:34;21.00;99.90
42099;DHT22;27758;55.900;8.516;2022-08-01T12:42:00;20.90;99.90
42099;DHT22;27758;55.900;8.516;2022-08-01T12:44:28;20.80;99.90
42099;DHT22;27758;55.900;8.516;2022-08-01T12:46:56;20.80;99.90
42099;DHT22;27758;55.900;8.516;2022-08-01T12:49:22;20.70;99.90
42099;DHT22;27758;55.900;8.516;2022-08-01T12:51:49;20.70;99.90
42099;DHT22;27758;55.900;8.516;2022-08-01T12:54:15;20.60;99.90
42099;DHT22;27758;55.900;8.516;2022-08-01T12:56:41;20.50;99.90
42099;DHT22;27758;55.900;8.516;2022-08-01T12:59:27;20.50;99.90
42099;DHT22;27758;55.900;8.516;2022-08-01T13:01:54;20.20;99.90
42099;DHT22;27758;55.900;8.516;2022-08-01T13:04:21;20.10;99.90
42099;DHT22;27758;55.900;8.516;2022-08-01T13:06:48;20.30;99.90
42099;DHT22;27758;55.900;8.516;2022-08-01T13:09:18;20.20;99.90
42099;DHT22;27758;55.900;8.516;2022-08-01T13:11:44;20.20;99.90
42099;DHT22;27758;55.900;8.516;2022-08-01T13:14:27;20.10;99.90
42099;DHT22;27758;55.900;8.516;2022-08-01T13:16:53;19.70;99.90
42099;DHT22;27758;55.900;8.516;2022-08-01T13:19:19;19.40;99.90
42099;DHT22;27758;55.900;8.516;2022-08-01T13:21:56;19.20;99.90
42099;DHT22;27758;55.900;8.516;2022-08-01T13:24:29;19.20;99.90
42099;DHT22;27758;55.900;8.516;2022-08-01T13:27:00;19.20;99.90
42099;DHT22;27758;55.900;8.516;2022-08-01T13:29:37;19.20;99.90
42099;DHT22;27758;55.900;8.516;2022-08-01T13:32:14;19.30;99.90
42099;DHT22;27758;55.900;8.516;2022-08-01T13:34:40;19.10;99.90
42099;DHT22;27758;55.900;8.516;2022-08-01T13:37:06;19.00;99.90
42099;DHT22;27758;55.900;8.516;2022-08-01T13:39:32;18.90;99.90
42099;DHT22;27758;55.900;8.516;2022-08-01T13:42:11;18.90;99.90
42099;DHT22;27758;55.900;8.516;2022-08-01T13:44:37;18.90;99.90
42099;DHT22;27758;55.900;8.516;2022-08-01T13:47:04;19.00;99.90
42099;DHT22;27758;55.900;8.516;2022-08-01T13:49:30;19.10;99.90
42099;DHT22;27758;55.900;8.516;2022-08-01T13:51:57;18.90;99.90
42099;DHT22;27758;55.900;8.516;2022-08-01T13:54:23;18.70;99.90
42099;DHT22;27758;55.900;8.516;2022-08-01T13:56:49;18.70;99.90
42099;DHT22;27758;55.900;8.516;2022-08-01T13:59:15;18.60;99.90
42099;DHT22;27758;55.900;8.516;2022-08-01T14:01:41;18.60;99.90
42099;DHT22;27758;55.900;8.516;2022-08-01T14:04:07;18.70;99.90
42099;DHT22;27758;55.900;8.516;2022-08-01T14:06:33;18.80;99.90
42099;DHT22;27758;55.900;8.516;2022-08-01T14:09:01;18.90;99.90
42099;DHT22;27758;55.900;8.516;2022-08-01T14:11:27;18.70;99.90
42099;DHT22;27758;55.900;8.516;2022-08-01T14:13:53;18.80;99.90
42099;DHT22;27758;55.900;8.516;2022-08-01T14:16:19;18.90;99.90
42099;DHT22;27758;55.900;8.516;2022-08-01T14:18:45;19.00;99.90
42099;DHT22;27758;55.900;8.516;2022-08-01T14:21:11;18.90;99.90
42099;DHT22;27758;55.900;8.516;2022-08-01T14:23:37;18.70;99.90
42099;DHT22;27758;55.900;8.516;2022-08-01T14:26:03;18.50;99.90
42099;DHT22;27758;55.900;8.516;2022-08-01T14:28:30;18.50;99.90
42099;DHT22;27758;55.900;8.516;2022-08-01T14:30:57;18.50;99.90
42099;DHT22;27758;55.900;8.516;2022-08-01T14:33:23;18.60;99.90
42099;DHT22;27758;55.900;8.516;2022-08-01T14:35:49;18.60;99.90
42099;DHT22;27758;55.900;8.516;2022-08-01T14:38:15;18.60;99.90
42099;DHT22;27758;55.900;8.516;2022-08-01T14:40:40;18.50;99.90
42099;DHT22;27758;55.900;8.516;2022-08-01T14:43:06;18.50;99.90
42099;DHT22;27758;55.900;8.516;2022-08-01T14:45:32;18.40;99.90
42099;DHT22;27758;55.900;8.516;2022-08-01T14:47:59;18.40;99.90
42099;DHT22;27758;55.900;8.516;2022-08-01T14:50:24;18.50;99.90
42099;DHT22;27758;55.900;8.516;2022-08-01T14:52:52;18.60;99.90
42099;DHT22;27758;55.900;8.516;2022-08-01T14:55:18;18.60;99.90
42099;DHT22;27758;55.900;8.516;2022-08-01T14:57:47;18.50;99.90
42099;DHT22;27758;55.900;8.516;2022-08-01T15:00:13;18.40;99.90
42099;DHT22;27758;55.900;8.516;2022-08-01T15:02:39;18.30;99.90
42099;DHT22;27758;55.900;8.516;2022-08-01T15:05:06;18.30;99.90
42099;DHT22;27758;55.900;8.516;2022-08-01T15:07:32;18.20;99.90
42099;DHT22;27758;55.900;8.516;2022-08-01T15:09:57;18.20;99.90
42099;DHT22;27758;55.900;8.516;2022-08-01T15:12:23;18.30;99.90
42099;DHT22;27758;55.900;8.516;2022-08-01T15:14:49;18.40;99.90
42099;DHT22;27758;55.900;8.516;2022-08-01T15:19:45;18.30;99.90
42099;DHT22;27758;55.900;8.516;2022-08-01T15:22:11;18.30;99.90
42099;DHT22;27758;55.900;8.516;2022-08-01T15:24:38;18.20;99.90
42099;DHT22;27758;55.900;8.516;2022-08-01T15:27:04;18.20;99.90
42099;DHT22;27758;55.900;8.516;2022-08-01T15:29:30;18.20;99.90
42099;DHT22;27758;55.900;8.516;2022-08-01T15:31:57;18.10;99.90
42099;DHT22;27758;55.900;8.516;2022-08-01T15:34:23;18.10;99.90
42099;DHT22;27758;55.900;8.516;2022-08-01T15:36:51;18.10;99.90
42099;DHT22;27758;55.900;8.516;2022-08-01T15:39:17;18.10;99.90
42099;DHT22;27758;55.900;8.516;2022-08-01T15:41:43;18.10;99.90
42099;DHT22;27758;55.900;8.516;2022-08-01T15:44:09;18.00;99.90
42099;DHT22;27758;55.900;8.516;2022-08-01T15:46:35;18.00;99.90
42099;DHT22;27758;55.900;8.516;2022-08-01T15:49:03;17.90;99.90
42099;DHT22;27758;55.900;8.516;2022-08-01T15:51:30;17.70;99.90
42099;DHT22;27758;55.900;8.516;2022-08-01T15:53:56;17.60;99.90
42099;DHT22;27758;55.900;8.516;2022-08-01T15:56:22;17.60;99.90
42099;DHT22;27758;55.900;8.516;2022-08-01T15:58:48;17.70;99.90
42099;DHT22;27758;55.900;8.516;2022-08-01T16:01:14;17.70;99.90
42099;DHT22;27758;55.900;8.516;2022-08-01T16:03:39;17.70;99.90
42099;DHT22;27758;55.900;8.516;2022-08-01T16:06:05;17.80;99.90
42099;DHT22;27758;55.900;8.516;2022-08-01T16:08:33;17.80;99.90
42099;DHT22;27758;55.900;8.516;2022-08-01T16:10:59;17.80;99.90
42099;DHT22;27758;55.900;8.516;2022-08-01T16:13:25;17.70;99.90
42099;DHT22;27758;55.900;8.516;2022-08-01T16:15:51;17.70;99.90
42099;DHT22;27758;55.900;8.516;2022-08-01T16:18:17;17.90;99.90
42099;DHT22;27758;55.900;8.516;2022-08-01T16:20:43;17.90;99.90
42099;DHT22;27758;55.900;8.516;2022-08-01T16:23:09;18.00;99.90